Terminal Aerodrome Forecast
Issued by NWS

Home | Current Version | Previous Version | Text Only | Print | Product List | Glossary On
Versions: 1 2 3 4 5 6 7 8 9 10 11 12 13 14
000
FTAK31 PAFA 200531
TAFAFA
TAF
PAFA 200531Z 2006/2112 35012KT P6SM FEW100 BKN170
     FM201800 01010KT P6SM VCSH OVC050
     FM210100 02009KT 6SM -SHSN OVC025
     FM210500 01015G22KT 6SM -SHSN OVC025=

USA.gov is the U.S. government's official web portal to all federal, state and local government web resources and services.